Time;durP1;ratioP1;P1;durP2;ratioP2;P2;SDS_P1;SDS_P2;PMS_P1;PMS_P2;Temp;Humidity;BMP_temperature;BMP_pressure;BME280_temperature;BME280_humidity;BME280_pressure;Samples;Min_cycle;Max_cycle;Signal;HPM_P1;HPM_P2
2022/08/06 00:02:24;;;;;;;0.10;0.10;;;;;;;17.46;56.71;102695.84;5099138;28;20028;-80
2022/08/06 00:04:51;;;;;;;0.00;0.00;;;;;;;17.45;56.70;102694.06;5103313;28;20037;-80
2022/08/06 00:07:17;;;;;;;0.00;0.00;;;;;;;17.45;56.89;102706.59;5102851;28;20028;-80
2022/08/06 00:09:44;;;;;;;0.00;0.00;;;;;;;17.45;57.05;102706.59;5103564;28;20061;-80
2022/08/06 00:12:11;;;;;;;0.10;0.10;;;;;;;17.43;56.94;102706.63;5103023;28;20032;-80
2022/08/06 00:14:37;;;;;;;0.35;0.35;;;;;;;17.44;57.26;102705.69;5101669;28;20035;-80
2022/08/06 00:17:03;;;;;;;0.10;0.10;;;;;;;17.45;57.58;102709.28;5102748;28;20032;-80
2022/08/06 00:19:30;;;;;;;0.10;0.10;;;;;;;17.48;56.98;102711.00;5102282;28;20056;-80
2022/08/06 00:21:56;;;;;;;0.08;0.08;;;;;;;17.47;57.03;102710.13;5101093;28;20028;-80
2022/08/06 00:24:22;;;;;;;0.00;0.00;;;;;;;17.48;57.41;102717.25;5102795;28;20032;-81
2022/08/06 00:26:48;;;;;;;0.10;0.10;;;;;;;17.46;57.12;102711.91;5102768;28;20055;-81
2022/08/06 00:29:14;;;;;;;0.03;0.03;;;;;;;17.45;57.28;102718.19;5102240;28;20035;-81
2022/08/06 00:31:41;;;;;;;0.10;0.10;;;;;;;17.44;57.00;102719.09;5101564;28;20028;-81
2022/08/06 00:34:08;;;;;;;0.10;0.10;;;;;;;17.41;56.58;102721.84;5102512;28;20028;-80
2022/08/06 00:36:34;;;;;;;0.10;0.10;;;;;;;17.39;57.00;102723.66;5101814;28;20024;-80
2022/08/06 00:39:05;;;;;;;0.10;0.10;;;;;;;17.37;56.80;102729.97;5102139;28;20031;-81
2022/08/06 00:41:34;;;;;;;0.00;0.00;;;;;;;17.33;57.22;102734.50;5101067;28;20092;-80
2022/08/06 00:44:01;;;;;;;0.10;0.10;;;;;;;17.30;57.38;102729.19;5101904;28;20024;-80
2022/08/06 00:46:28;;;;;;;0.08;0.08;;;;;;;17.27;56.63;102734.59;5101954;28;20073;-81
2022/08/06 00:48:54;;;;;;;0.08;0.08;;;;;;;17.24;57.27;102738.22;5102153;28;20024;-80
2022/08/06 00:51:21;;;;;;;0.08;0.08;;;;;;;17.19;57.65;102741.91;5100169;28;20038;-81
2022/08/06 00:53:48;;;;;;;0.10;0.10;;;;;;;17.17;57.41;102739.25;5101921;28;20028;-80
2022/08/06 00:56:14;;;;;;;0.32;0.32;;;;;;;17.15;57.87;102735.72;5101522;28;20032;-80
2022/08/06 00:58:41;;;;;;;0.00;0.00;;;;;;;17.14;57.63;102734.81;5101704;28;20070;-80
2022/08/06 01:01:08;;;;;;;0.00;0.00;;;;;;;17.12;57.72;102735.75;5100119;28;20491;-81
2022/08/06 01:03:35;;;;;;;0.00;0.00;;;;;;;17.13;57.84;102749.13;5101011;28;20035;-81
2022/08/06 01:06:01;;;;;;;0.05;0.05;;;;;;;17.14;56.98;102750.00;5102143;28;20050;-80
2022/08/06 01:08:27;;;;;;;0.00;0.00;;;;;;;17.14;57.96;102739.28;5101568;28;20028;-80
2022/08/06 01:10:53;;;;;;;0.00;0.00;;;;;;;17.16;57.49;102748.19;5100416;28;20400;-80
2022/08/06 01:13:19;;;;;;;0.00;0.00;;;;;;;17.14;57.87;102750.88;5101247;28;20039;-80
2022/08/06 01:15:55;;;;;;;0.00;0.00;;;;;;;17.18;58.16;102750.84;5100913;28;20028;-81
2022/08/06 01:18:28;;;;;;;0.10;0.10;;;;;;;17.17;57.99;102743.72;5101664;28;20115;-80
2022/08/06 01:21:23;;;;;;;0.10;0.10;;;;;;;17.21;58.08;102749.00;5099837;28;20035;-80
2022/08/06 01:29:35;;;;;;;0.20;0.20;;;;;;;17.12;57.24;102759.84;5070974;28;20911;-77
2022/08/06 01:32:09;;;;;;;0.00;0.00;;;;;;;17.13;57.30;102759.84;5070353;28;20040;-77
2022/08/06 01:34:42;;;;;;;0.00;0.00;;;;;;;17.14;57.55;102758.03;5071159;28;20024;-77
2022/08/06 01:37:38;;;;;;;0.20;0.20;;;;;;;17.19;57.34;102757.97;5051080;28;20047;-77
2022/08/06 01:40:10;;;;;;;0.00;0.00;;;;;;;17.14;57.61;102755.38;5050323;28;20041;-77
2022/08/06 01:42:37;;;;;;;0.10;0.10;;;;;;;17.12;57.96;102757.19;5050165;28;20029;-77
2022/08/06 01:45:09;;;;;;;0.00;0.00;;;;;;;17.11;57.75;102756.31;5050807;28;20068;-77
2022/08/06 01:47:36;;;;;;;0.00;0.00;;;;;;;17.10;57.82;102759.88;5050235;28;20085;-77
2022/08/06 01:50:08;;;;;;;0.03;0.03;;;;;;;17.10;57.74;102761.69;5050626;28;20379;-77
2022/08/06 01:52:37;;;;;;;0.10;0.10;;;;;;;17.08;57.27;102766.19;5050272;28;20079;-77
2022/08/06 01:55:08;;;;;;;0.00;0.00;;;;;;;17.06;57.68;102760.88;5050414;28;20030;-77
2022/08/06 01:57:36;;;;;;;0.45;0.45;;;;;;;17.04;58.09;102770.69;5050339;28;20048;-77
2022/08/06 02:00:05;;;;;;;0.00;0.00;;;;;;;17.03;58.21;102774.28;5050743;28;20052;-77
2022/08/06 02:02:33;;;;;;;0.10;0.10;;;;;;;17.02;57.90;102764.47;5049993;28;20071;-76
2022/08/06 02:05:01;;;;;;;0.10;0.10;;;;;;;17.00;57.65;102769.00;5050509;28;20475;-77
2022/08/06 02:07:33;;;;;;;0.28;0.28;;;;;;;16.97;57.90;102769.94;5050263;28;20062;-77
2022/08/06 02:10:02;;;;;;;0.10;0.10;;;;;;;16.93;58.04;102768.19;5050107;28;20052;-77
2022/08/06 02:12:30;;;;;;;0.00;0.00;;;;;;;16.92;58.19;102770.91;5049545;28;20021;-77
2022/08/06 02:15:00;;;;;;;0.10;0.10;;;;;;;16.90;57.85;102762.00;5050507;28;20036;-77
2022/08/06 02:17:33;;;;;;;0.00;0.00;;;;;;;16.89;58.39;102768.25;5050492;28;20029;-77
2022/08/06 02:20:00;;;;;;;;;;;;;;;16.97;58.24;102758.31;5050837;28;20479;-77
2022/08/06 02:22:29;;;;;;;0.10;0.10;;;;;;;16.85;58.42;102763.84;5050407;28;19916;-77
2022/08/06 02:25:00;;;;;;;0.00;0.00;;;;;;;16.82;58.66;102763.00;5050440;28;20025;-77
2022/08/06 02:27:29;;;;;;;0.40;0.40;;;;;;;16.81;58.47;102763.91;5049687;28;20033;-77
2022/08/06 02:29:58;;;;;;;0.05;0.05;;;;;;;16.82;58.72;102760.31;5050092;28;20033;-77
2022/08/06 02:32:24;;;;;;;0.00;0.00;;;;;;;16.82;58.93;102760.31;5049163;28;20025;-77
2022/08/06 02:34:50;;;;;;;0.10;0.10;;;;;;;16.84;58.57;102770.13;5049156;28;20082;-77
2022/08/06 02:37:26;;;;;;;0.00;0.00;;;;;;;16.86;57.72;102766.50;5049511;28;20123;-77
2022/08/06 02:39:59;;;;;;;0.10;0.10;;;;;;;16.84;57.94;102768.31;5041424;28;20072;-77
2022/08/06 02:42:35;;;;;;;0.10;0.10;;;;;;;16.86;58.72;102760.25;5035448;28;20056;-77
2022/08/06 02:45:18;;;;;;;0.00;0.00;;;;;;;16.86;58.74;102771.88;5036555;28;20438;-77
2022/08/06 02:47:55;;;;;;;0.10;0.10;;;;;;;16.81;58.51;102774.59;5036160;28;20025;-77
2022/08/06 02:50:27;;;;;;;0.00;0.00;;;;;;;16.76;59.14;102781.81;5036071;28;20038;-77
2022/08/06 02:52:59;;;;;;;0.25;0.25;;;;;;;16.74;58.55;102780.09;5035306;28;20487;-77
2022/08/06 02:55:30;;;;;;;0.10;0.10;;;;;;;16.73;58.96;102780.97;5036125;28;20030;-77
2022/08/06 02:58:01;;;;;;;0.10;0.10;;;;;;;16.71;59.17;102782.78;5036315;28;20491;-77
2022/08/06 03:00:29;;;;;;;0.00;0.00;;;;;;;16.67;59.02;102776.59;5036018;28;20116;-77
2022/08/06 03:03:03;;;;;;;0.00;0.00;;;;;;;16.68;58.57;102778.38;5034261;28;20414;-77
2022/08/06 03:05:30;;;;;;;0.10;0.10;;;;;;;16.62;58.61;102782.03;5035843;28;20108;-77
2022/08/06 03:07:58;;;;;;;0.10;0.10;;;;;;;16.60;58.61;102780.28;5035601;28;20031;-77
2022/08/06 03:10:28;;;;;;;0.00;0.00;;;;;;;16.58;58.90;102779.41;5035251;28;20075;-77
2022/08/06 03:12:56;;;;;;;0.08;0.08;;;;;;;16.57;59.06;102785.66;5034685;28;20041;-77
2022/08/06 03:15:24;;;;;;;0.75;0.75;;;;;;;16.57;58.70;102788.34;5035406;28;21032;-77
2022/08/06 03:17:55;;;;;;;0.30;0.30;;;;;;;16.55;58.71;102782.13;5034948;28;20452;-77
2022/08/06 03:20:21;;;;;;;0.08;0.08;;;;;;;16.55;58.94;102790.16;5035104;28;20120;-77
2022/08/06 03:22:50;;;;;;;0.00;0.00;;;;;;;16.55;59.10;102787.47;5034877;28;20116;-77
2022/08/06 03:25:18;;;;;;;0.05;0.05;;;;;;;16.54;59.74;102781.25;5035193;28;20033;-77
2022/08/06 03:27:46;;;;;;;0.10;0.10;;;;;;;16.55;59.00;102792.81;5034664;28;20487;-77
2022/08/06 03:30:14;;;;;;;0.10;0.10;;;;;;;16.55;58.87;102790.16;5034941;28;20041;-77
2022/08/06 03:32:41;;;;;;;0.00;0.00;;;;;;;16.54;59.53;102786.59;5034706;28;20053;-77
2022/08/06 03:35:08;;;;;;;0.00;0.00;;;;;;;16.55;58.81;102790.16;5035623;28;20033;-77
2022/08/06 03:37:36;;;;;;;0.00;0.00;;;;;;;16.54;59.16;102791.94;5035615;28;20399;-77
2022/08/06 03:40:04;;;;;;;0.00;0.00;;;;;;;16.51;59.22;102794.69;5035341;28;20112;-77
2022/08/06 03:42:30;;;;;;;0.10;0.10;;;;;;;16.49;59.30;102799.16;5033974;28;20543;-77
2022/08/06 03:44:56;;;;;;;0.00;0.00;;;;;;;16.46;59.27;102797.41;5035005;28;20045;-77
2022/08/06 03:47:31;;;;;;;0.10;0.10;;;;;;;16.46;59.04;102800.09;5034281;28;20029;-77
2022/08/06 03:52:45;;;;;;;0.00;0.00;;;;;;;16.47;59.34;102800.97;5070015;28;20385;-77
2022/08/06 03:55:16;;;;;;;0.10;0.10;;;;;;;16.45;59.38;102792.09;5070652;28;20740;-77
2022/08/06 03:57:47;;;;;;;0.17;0.17;;;;;;;16.45;59.16;102801.00;5070992;28;20028;-77
2022/08/06 04:00:15;;;;;;;0.05;0.05;;;;;;;16.42;60.18;102801.00;5070893;28;20307;-77
2022/08/06 04:02:48;;;;;;;0.10;0.10;;;;;;;16.44;59.84;102809.91;5070086;28;20036;-77
2022/08/06 04:05:18;;;;;;;;;;;;;;;16.54;59.49;102808.00;5070780;28;20029;-77
2022/08/06 04:07:45;;;;;;;0.10;0.10;;;;;;;16.38;59.98;102807.31;5070448;28;19919;-77
2022/08/06 04:10:13;;;;;;;0.10;0.10;;;;;;;16.36;59.86;102814.47;5069620;28;20472;-77
2022/08/06 04:12:41;;;;;;;0.00;0.00;;;;;;;16.34;59.51;102811.81;5068884;28;20658;-77
2022/08/06 04:15:09;;;;;;;0.00;0.00;;;;;;;16.31;60.21;102811.88;5069648;28;20029;-77
2022/08/06 04:17:38;;;;;;;0.00;0.00;;;;;;;16.32;60.26;102818.09;5069744;28;20081;-77
2022/08/06 04:20:07;;;;;;;6.88;0.50;;;;;;;16.33;59.88;102819.88;5070592;28;20523;-77
2022/08/06 04:22:33;;;;;;;0.10;0.10;;;;;;;16.32;60.21;102818.09;5069826;28;20021;-77
2022/08/06 04:24:59;;;;;;;0.05;0.05;;;;;;;16.32;60.03;102812.75;5069950;28;20031;-77
2022/08/06 04:27:27;;;;;;;0.10;0.10;;;;;;;16.32;60.14;102813.66;5069562;28;20048;-77
2022/08/06 04:29:56;;;;;;;0.10;0.10;;;;;;;16.33;60.08;102814.53;5070412;28;20032;-77
2022/08/06 04:32:24;;;;;;;0.10;0.10;;;;;;;16.33;60.01;102817.19;5069149;28;20032;-77
2022/08/06 04:34:52;;;;;;;0.10;0.10;;;;;;;16.34;59.68;102818.97;5070121;28;20071;-77
2022/08/06 04:37:19;;;;;;;0.10;0.10;;;;;;;16.33;60.26;102818.06;5070352;28;20029;-77
2022/08/06 04:39:45;;;;;;;0.70;0.70;;;;;;;16.37;60.75;102818.03;5070656;28;20064;-77
2022/08/06 04:42:12;;;;;;;0.00;0.00;;;;;;;16.39;59.97;102825.16;5069534;28;20036;-77
2022/08/06 04:44:39;;;;;;;0.05;0.05;;;;;;;16.38;59.71;102818.03;5070325;28;20400;-76
2022/08/06 04:47:06;;;;;;;0.10;0.10;;;;;;;16.39;59.72;102821.59;5070429;28;20111;-77
2022/08/06 04:49:32;;;;;;;0.00;0.00;;;;;;;16.40;59.91;102815.31;5069997;28;20422;-77
2022/08/06 04:51:58;;;;;;;0.10;0.10;;;;;;;16.41;59.61;102826.03;5068989;28;20055;-77
2022/08/06 04:54:25;;;;;;;0.10;0.10;;;;;;;16.40;59.74;102826.94;5070343;28;20116;-77
2022/08/06 04:56:51;;;;;;;0.00;0.00;;;;;;;16.40;59.90;102826.94;5069806;28;20028;-77
2022/08/06 04:59:18;;;;;;;0.00;0.00;;;;;;;16.41;59.87;102828.69;5069632;28;20500;-77
2022/08/06 05:01:44;;;;;;;0.10;0.10;;;;;;;16.43;60.25;102836.69;5069478;28;20051;-77
2022/08/06 05:04:10;;;;;;;0.20;0.20;;;;;;;16.44;59.39;102836.66;5055612;28;20037;-77
2022/08/06 05:09:24;;;;;;;0.00;0.00;;;;;;;16.49;59.73;102847.31;5071119;28;20761;-77
2022/08/06 05:12:29;;;;;;;0.13;0.13;;;;;;;16.60;60.07;102845.38;5070378;28;20114;-77
2022/08/06 05:15:08;;;;;;;0.03;0.03;;;;;;;16.59;59.78;102846.28;5071289;28;20486;-77
2022/08/06 05:17:40;;;;;;;0.10;0.10;;;;;;;16.62;60.22;102859.66;5071304;28;20116;-77
2022/08/06 05:20:15;;;;;;;0.10;0.10;;;;;;;16.69;60.17;102855.09;5071549;28;20440;-77
2022/08/06 05:22:44;;;;;;;0.10;0.10;;;;;;;16.69;59.83;102857.75;5070349;28;20064;-77
2022/08/06 05:25:10;;;;;;;0.00;0.00;;;;;;;16.70;59.83;102862.22;5071515;28;20029;-77
2022/08/06 05:27:37;;;;;;;0.03;0.03;;;;;;;16.72;60.06;102863.06;5070781;28;20039;-77
2022/08/06 05:30:04;;;;;;;0.00;0.00;;;;;;;16.77;59.98;102868.34;5071369;28;20043;-77
2022/08/06 05:32:30;;;;;;;0.05;0.05;;;;;;;16.78;60.04;102871.00;5070518;28;20083;-77
2022/08/06 05:34:56;;;;;;;0.00;0.00;;;;;;;16.80;60.07;102871.88;5070937;28;20083;-77
2022/08/06 05:37:22;;;;;;;0.10;0.10;;;;;;;16.84;60.26;102877.22;5070715;28;20021;-77
2022/08/06 05:39:49;;;;;;;0.10;0.10;;;;;;;16.86;60.81;102875.38;5071326;28;20032;-77
2022/08/06 05:42:15;;;;;;;0.00;0.00;;;;;;;16.90;59.78;102880.66;5079820;22;20107;-79
2022/08/06 05:44:41;;;;;;;0.10;0.10;;;;;;;16.96;59.82;102887.78;5063695;28;20026;-79
2022/08/06 05:47:14;;;;;;;0.10;0.10;;;;;;;17.03;60.60;102881.41;5063037;28;20057;-79
2022/08/06 05:49:45;;;;;;;0.28;0.28;;;;;;;17.05;59.89;102890.31;5062780;28;20029;-79
2022/08/06 05:52:26;;;;;;;0.00;0.00;;;;;;;17.14;59.61;102890.16;5061537;28;20025;-80
2022/08/06 05:55:00;;;;;;;0.10;0.10;;;;;;;17.17;59.43;102888.34;5062727;28;20036;-79
2022/08/06 06:00:10;;;;;;;0.00;0.00;;;;;;;17.27;59.26;102892.66;5090693;27;20389;-79
2022/08/06 06:02:40;;;;;;;0.10;0.10;;;;;;;17.32;59.59;102897.94;5090592;28;20030;-79
2022/08/06 06:05:08;;;;;;;0.05;0.05;;;;;;;17.39;59.09;102905.88;5091366;28;20032;-80
2022/08/06 06:07:35;;;;;;;0.10;0.10;;;;;;;17.43;58.93;102902.25;5091792;28;20039;-80
2022/08/06 06:10:04;;;;;;;0.10;0.10;;;;;;;17.49;59.40;102906.59;5090825;28;20556;-80
2022/08/06 06:12:32;;;;;;;0.10;0.10;;;;;;;17.52;59.17;102905.66;5089787;28;20510;-80
2022/08/06 06:15:00;;;;;;;0.10;0.10;;;;;;;17.58;58.70;102909.16;5090781;28;20024;-79
2022/08/06 06:18:06;;;;;;;0.10;0.10;;;;;;;17.73;58.95;102909.78;5090620;28;20064;-79
2022/08/06 06:23:32;;;;;;;0.03;0.03;;;;;;;17.83;58.26;102915.88;5096909;27;1484876;-78
2022/08/06 06:26:22;;;;;;;0.10;0.10;;;;;;;17.92;58.20;102921.09;5138683;28;20039;-77
2022/08/06 06:29:01;;;;;;;0.00;0.00;;;;;;;17.97;58.70;102918.34;5139597;28;20027;-78
2022/08/06 06:31:56;;;;;;;0.10;0.10;;;;;;;18.05;59.19;102911.06;5137361;27;20055;-77
2022/08/06 06:34:37;;;;;;;0.05;0.05;;;;;;;18.08;58.67;102916.34;5139259;27;20038;-78
2022/08/06 06:37:37;;;;;;;0.10;0.10;;;;;;;18.15;59.44;102911.78;5138839;27;20083;-78
2022/08/06 06:43:08;;;;;;;0.10;0.10;;;;;;;18.30;58.94;102915.97;5069705;28;20847;-77
2022/08/06 06:45:56;;;;;;;0.00;0.00;;;;;;;18.38;58.45;102914.91;5069436;28;20074;-78
2022/08/06 06:48:31;;;;;;;0.10;0.10;;;;;;;18.41;58.25;102924.69;5070985;28;20534;-80
2022/08/06 06:51:03;;;;;;;0.10;0.10;;;;;;;18.48;57.94;102925.44;5070540;28;20025;-79
2022/08/06 06:53:34;;;;;;;0.10;0.10;;;;;;;18.54;57.68;102928.00;5070960;28;20124;-79
2022/08/06 06:56:01;;;;;;;0.10;0.10;;;;;;;18.58;57.63;102921.66;5071668;28;20095;-80
2022/08/06 07:01:13;;;;;;;0.00;0.00;;;;;;;18.72;56.69;102922.25;5070362;28;20907;-80
2022/08/06 07:03:42;;;;;;;0.10;0.10;;;;;;;18.79;56.33;102914.97;5071550;28;20493;-79
2022/08/06 07:06:10;;;;;;;0.10;0.10;;;;;;;18.84;55.67;102917.53;5071038;28;20032;-80
2022/08/06 07:08:45;;;;;;;0.10;0.10;;;;;;;18.97;55.90;102913.69;5071257;28;20063;-80
2022/08/06 07:11:19;;;;;;;0.10;0.10;;;;;;;19.04;55.65;102923.38;5071068;28;20029;-79
2022/08/06 07:13:46;;;;;;;0.10;0.10;;;;;;;19.08;55.67;102926.88;5071823;28;20040;-79
2022/08/06 07:16:15;;;;;;;0.10;0.10;;;;;;;19.14;55.34;102934.81;5070372;28;20038;-80
2022/08/06 07:18:44;;;;;;;0.10;0.10;;;;;;;19.20;55.61;102931.09;5071295;28;20031;-80
2022/08/06 07:21:13;;;;;;;0.00;0.00;;;;;;;19.26;55.02;102936.31;5069678;28;20037;-80
2022/08/06 07:23:39;;;;;;;0.10;0.10;;;;;;;19.27;54.07;102934.53;5070607;28;20475;-80
2022/08/06 07:26:07;;;;;;;0.08;0.08;;;;;;;19.33;53.75;102943.31;5070401;28;20033;-79
2022/08/06 07:28:33;;;;;;;0.10;0.10;;;;;;;19.39;53.43;102948.56;5070886;28;20075;-80
2022/08/06 07:31:03;;;;;;;0.00;0.00;;;;;;;19.43;53.71;102945.78;5069653;28;20025;-79
2022/08/06 07:33:31;;;;;;;0.00;0.00;;;;;;;19.46;53.52;102943.91;5070143;28;20483;-80
2022/08/06 07:35:59;;;;;;;0.00;0.00;;;;;;;19.51;53.43;102946.50;5070535;28;20401;-80
2022/08/06 07:38:28;;;;;;;0.00;0.00;;;;;;;19.61;53.51;102942.66;5070023;28;20021;-80
2022/08/06 07:41:01;;;;;;;0.03;0.03;;;;;;;19.70;52.91;102941.53;5069355;28;20043;-80
2022/08/06 07:43:29;;;;;;;;;;;;;;;19.87;51.93;102933.06;5070899;28;20115;-80
2022/08/06 07:45:58;;;;;;;0.10;0.10;;;;;;;19.78;51.20;102936.84;5070474;28;20365;-80
2022/08/06 07:48:43;;;;;;;0.00;0.00;;;;;;;19.91;51.46;102940.13;5069319;28;20040;-80
2022/08/06 07:51:11;;;;;;;0.10;0.10;;;;;;;19.93;52.12;102943.69;5069070;28;20036;-80
2022/08/06 07:53:41;;;;;;;0.10;0.10;;;;;;;19.92;49.94;102941.03;5069816;28;20063;-80
2022/08/06 07:56:09;;;;;;;0.08;0.08;;;;;;;20.04;49.21;102946.09;5070165;28;20056;-80
2022/08/06 07:58:37;;;;;;;0.00;0.00;;;;;;;20.10;49.19;102943.25;5069254;28;20029;-80
2022/08/06 08:01:05;;;;;;;0.10;0.10;;;;;;;20.21;50.07;102948.31;5068768;28;20035;-80
2022/08/06 08:06:22;;;;;;;0.10;0.10;;;;;;;20.34;49.95;102957.81;5069578;28;20460;-80
2022/08/06 08:11:32;;;;;;;0.10;0.10;;;;;;;20.41;48.78;102955.88;5124834;27;20396;-79
2022/08/06 08:13:59;;;;;;;0.10;0.10;;;;;;;20.47;48.48;102955.69;5125354;28;20032;-80
2022/08/06 08:16:26;;;;;;;0.03;0.03;;;;;;;20.56;47.07;102959.94;5125417;28;20027;-79
2022/08/06 08:18:53;;;;;;;0.10;0.10;;;;;;;20.59;47.14;102957.13;5125446;28;20042;-80
2022/08/06 08:21:21;;;;;;;0.10;0.10;;;;;;;20.68;47.99;102959.56;5125499;28;20111;-80
2022/08/06 08:23:49;;;;;;;0.10;0.10;;;;;;;20.79;48.74;102961.09;5125027;28;20032;-79
2022/08/06 08:26:15;;;;;;;0.10;0.10;;;;;;;20.80;46.59;102962.88;5125321;28;20063;-79
2022/08/06 08:28:41;;;;;;;0.10;0.10;;;;;;;20.88;47.98;102960.81;5124632;28;20054;-80
2022/08/06 08:31:08;;;;;;;0.08;0.08;;;;;;;20.95;47.51;102957.00;5123189;28;20049;-79
2022/08/06 08:33:35;;;;;;;1.65;0.52;;;;;;;21.12;47.97;102952.91;5125155;28;20031;-80
2022/08/06 08:36:02;;;;;;;0.10;0.10;;;;;;;21.25;46.94;102950.75;5125688;28;20115;-79
2022/08/06 08:38:31;;;;;;;0.10;0.10;;;;;;;21.36;46.42;102955.75;5125100;28;20085;-80
2022/08/06 08:41:01;;;;;;;0.10;0.10;;;;;;;21.46;45.69;102958.13;5124072;28;20492;-79
2022/08/06 08:43:35;;;;;;;0.10;0.10;;;;;;;21.59;44.51;102950.53;5125181;28;20087;-79
2022/08/06 08:46:02;;;;;;;0.10;0.10;;;;;;;21.75;45.96;102952.75;5125255;28;20032;-79
2022/08/06 08:48:30;;;;;;;0.20;0.20;;;;;;;21.90;46.19;102952.19;5115580;28;20373;-79
2022/08/06 08:50:58;;;;;;;0.10;0.10;;;;;;;22.03;45.99;102957.19;5112518;28;20024;-79
2022/08/06 08:53:40;;;;;;;0.10;0.10;;;;;;;22.23;45.24;102954.66;5113740;28;20050;-78
2022/08/06 08:56:07;;;;;;;0.10;0.10;;;;;;;22.32;43.78;102963.34;5112368;28;20049;-79
2022/08/06 08:58:36;;;;;;;0.10;0.10;;;;;;;22.47;44.93;102952.03;5114045;28;20103;-78
2022/08/06 09:01:07;;;;;;;0.00;0.00;;;;;;;22.55;44.20;102943.66;5111928;28;20101;-79
2022/08/06 09:03:35;;;;;;;0.10;0.10;;;;;;;22.61;44.06;102947.00;5112192;28;20037;-79
2022/08/06 09:06:03;;;;;;;0.00;0.00;;;;;;;22.74;43.98;102951.94;5111892;28;20027;-80
2022/08/06 09:08:31;;;;;;;0.10;0.10;;;;;;;22.86;43.53;102954.16;5111552;28;20081;-80
2022/08/06 09:10:58;;;;;;;0.10;0.10;;;;;;;22.98;43.85;102958.22;5110853;28;20020;-79
2022/08/06 09:13:26;;;;;;;0.10;0.10;;;;;;;23.07;41.79;102959.69;5112326;28;20116;-79
2022/08/06 09:15:53;;;;;;;0.65;0.65;;;;;;;23.23;42.70;102955.47;5110244;28;20085;-78
2022/08/06 09:18:21;;;;;;;0.00;0.00;;;;;;;23.38;41.09;102953.94;5109851;28;20030;-80
2022/08/06 09:20:48;;;;;;;0.00;0.00;;;;;;;23.58;41.61;102954.97;5107487;28;20027;-79
2022/08/06 09:23:16;;;;;;;0.10;0.10;;;;;;;23.73;42.56;102954.31;5101736;28;20028;-80
2022/08/06 09:25:46;;;;;;;0.10;0.10;;;;;;;23.82;42.44;102961.16;5109764;28;20625;-81
2022/08/06 09:28:29;;;;;;;0.10;0.10;;;;;;;24.05;38.81;102956.59;5109867;28;20039;-81
2022/08/06 09:34:04;;;;;;;0.10;0.10;;;;;;;23.60;40.45;102961.16;5088828;27;20366;-80
2022/08/06 09:36:42;;;;;;;0.10;0.10;;;;;;;23.49;41.65;102964.34;5088189;28;20036;-79
2022/08/06 09:39:13;;;;;;;0.10;0.10;;;;;;;23.35;40.44;102962.22;5088833;28;20400;-80
2022/08/06 09:41:55;;;;;;;0.10;0.10;;;;;;;23.46;40.74;102964.44;5088789;28;20390;-80
2022/08/06 09:44:21;;;;;;;0.20;0.20;;;;;;;23.46;41.35;102963.59;5093741;28;20401;-79
2022/08/06 09:46:49;;;;;;;0.10;0.10;;;;;;;23.37;39.01;102959.44;5090131;28;20039;-79
2022/08/06 09:49:18;;;;;;;0.10;0.10;;;;;;;23.41;38.45;102955.66;5089310;28;20035;-79
2022/08/06 09:51:44;;;;;;;0.10;0.10;;;;;;;23.42;37.40;102958.28;5088779;28;20029;-80
2022/08/06 09:54:15;;;;;;;0.10;0.10;;;;;;;23.54;39.62;102966.84;5088831;28;20039;-80
2022/08/06 09:56:42;;;;;;;0.73;0.50;;;;;;;23.61;38.72;102964.78;5089346;28;20601;-80
2022/08/06 09:59:10;;;;;;;0.10;0.10;;;;;;;23.64;39.94;102953.81;5089381;28;20365;-80
2022/08/06 10:04:25;;;;;;;0.28;0.28;;;;;;;23.93;38.63;102951.75;5069691;28;20824;-79
2022/08/06 10:09:28;;;;;;;0.10;0.10;;;;;;;24.03;38.44;102958.50;5131806;27;1166874;-77
2022/08/06 10:11:55;;;;;;;0.10;0.10;;;;;;;24.04;38.74;102952.16;5137002;28;20036;-80
2022/08/06 10:19:45;;;;;;;0.20;0.20;;;;;;;24.25;38.26;102957.56;5083832;28;20387;-77
2022/08/06 10:22:14;;;;;;;0.10;0.10;;;;;;;24.42;39.02;102957.66;5083822;28;20037;-77
2022/08/06 10:24:43;;;;;;;0.10;0.10;;;;;;;24.53;39.03;102954.47;5083345;28;20496;-78
2022/08/06 10:27:12;;;;;;;0.05;0.05;;;;;;;24.67;38.62;102959.28;5083355;28;20040;-78
2022/08/06 10:29:44;;;;;;;0.08;0.08;;;;;;;24.76;38.08;102950.75;5083957;28;20027;-78
2022/08/06 10:32:16;;;;;;;0.10;0.10;;;;;;;24.85;38.92;102953.00;5082795;28;20044;-78
2022/08/06 10:34:48;;;;;;;0.10;0.10;;;;;;;24.91;37.59;102956.38;5082609;28;20055;-77
2022/08/06 10:37:16;;;;;;;;;;;;;;;25.13;36.28;102951.69;5083952;28;20036;-80
2022/08/06 10:39:47;;;;;;;0.10;0.10;;;;;;;25.12;35.58;102949.94;5082831;28;19912;-80
2022/08/06 10:42:14;;;;;;;0.10;0.10;;;;;;;25.21;36.08;102943.19;5083137;28;20063;-80
2022/08/06 10:44:41;;;;;;;0.00;0.00;;;;;;;25.33;36.66;102944.41;5082794;28;20278;-80
2022/08/06 10:47:08;;;;;;;0.10;0.10;;;;;;;25.38;32.10;102945.06;5083097;28;20063;-80
2022/08/06 10:49:34;;;;;;;0.10;0.10;;;;;;;25.55;34.41;102949.69;5082683;28;20046;-79
2022/08/06 10:52:01;;;;;;;0.10;0.10;;;;;;;25.64;35.14;102945.63;5081873;28;20108;-80
2022/08/06 10:54:30;;;;;;;0.30;0.30;;;;;;;25.75;34.98;102943.22;5083556;28;20044;-80
2022/08/06 10:56:57;;;;;;;0.10;0.10;;;;;;;25.72;31.94;102942.50;5083143;28;20048;-80
2022/08/06 10:59:23;;;;;;;0.10;0.10;;;;;;;25.82;34.85;102946.50;5083106;28;20048;-80
2022/08/06 11:02:16;;;;;;;0.10;0.10;;;;;;;25.88;34.44;102932.59;5082530;28;20118;-78
2022/08/06 11:12:54;;;;;;;0.10;0.10;;;;;;;25.81;34.47;102933.91;5071741;28;20390;-79
2022/08/06 11:15:20;;;;;;;0.10;0.10;;;;;;;25.97;34.58;102931.22;5072014;28;20460;-78
2022/08/06 11:23:23;;;;;;;0.10;0.10;;;;;;;26.35;33.28;102924.78;5083578;28;20394;-78
2022/08/06 11:25:53;;;;;;;0.10;0.10;;;;;;;26.20;31.56;102921.03;5084099;28;20032;-78
2022/08/06 11:31:35;;;;;;;0.10;0.10;;;;;;;26.10;32.08;102929.66;5124519;27;20160;-78
2022/08/06 11:34:05;;;;;;;0.10;0.10;;;;;;;26.05;30.96;102923.56;5125930;28;20506;-79
2022/08/06 11:39:50;;;;;;;0.20;0.20;;;;;;;26.25;32.68;102924.38;5110884;27;20528;-77
2022/08/06 11:42:40;;;;;;;0.10;0.10;;;;;;;26.34;31.22;102918.44;5117308;22;20358;-83
2022/08/06 11:45:06;;;;;;;1.15;1.08;;;;;;;26.28;29.25;102914.22;5080735;28;20040;-84
2022/08/06 11:47:32;;;;;;;0.05;0.05;;;;;;;26.35;30.12;102908.47;5097083;28;20035;-84
2022/08/06 11:50:00;;;;;;;0.10;0.10;;;;;;;26.48;31.51;102915.84;5094422;28;20569;-84
2022/08/06 11:52:44;;;;;;;0.15;0.15;;;;;;;26.49;31.13;102911.28;5094468;28;20036;-83
2022/08/06 11:55:13;;;;;;;0.10;0.10;;;;;;;26.57;31.50;102908.16;5096806;28;20100;-84
2022/08/06 11:57:40;;;;;;;0.30;0.30;;;;;;;26.67;30.62;102913.94;5095698;28;20032;-84
2022/08/06 12:00:10;;;;;;;0.20;0.20;;;;;;;26.70;31.47;102911.06;5095483;28;20103;-83
2022/08/06 12:08:18;;;;;;;0.20;0.20;;;;;;;26.53;31.54;102906.56;5096457;27;1868328;-81
2022/08/06 12:11:24;;;;;;;0.10;0.10;;;;;;;26.45;31.50;102907.84;5134715;28;20084;-79
2022/08/06 12:13:50;;;;;;;1.65;1.27;;;;;;;26.56;30.75;102912.72;5117302;28;20057;-83
2022/08/06 12:16:27;;;;;;;0.10;0.10;;;;;;;26.84;31.26;102894.84;5114525;28;20020;-82
2022/08/06 12:18:54;;;;;;;0.10;0.10;;;;;;;27.00;31.20;102903.03;5115108;28;20626;-81
2022/08/06 12:21:23;;;;;;;0.10;0.10;;;;;;;27.17;31.01;102903.91;5113994;28;20107;-83
2022/08/06 12:23:52;;;;;;;0.30;0.30;;;;;;;27.20;30.68;102896.41;5114795;28;20423;-83
2022/08/06 12:26:19;;;;;;;0.10;0.10;;;;;;;27.26;30.11;102906.09;5114813;28;20031;-82
2022/08/06 12:28:46;;;;;;;0.10;0.10;;;;;;;27.29;29.44;102897.72;5114606;28;20453;-83
2022/08/06 12:31:13;;;;;;;0.08;0.08;;;;;;;27.22;30.55;102901.78;5113844;28;20023;-82
2022/08/06 12:33:42;;;;;;;0.10;0.10;;;;;;;27.09;30.34;102898.91;5114883;28;20115;-82
2022/08/06 12:36:09;;;;;;;0.10;0.10;;;;;;;26.85;29.58;102901.19;5114718;28;20020;-82
2022/08/06 12:38:36;;;;;;;0.25;0.25;;;;;;;26.88;30.47;102892.84;5114046;28;20028;-83
2022/08/06 12:41:06;;;;;;;0.10;0.10;;;;;;;27.03;30.51;102889.25;5114158;28;20023;-82
2022/08/06 12:43:33;;;;;;;0.10;0.10;;;;;;;27.09;30.81;102886.19;5115201;28;20028;-83
2022/08/06 12:48:47;;;;;;;0.00;0.00;;;;;;;27.38;30.35;102889.03;5074231;28;20352;-83
2022/08/06 12:51:14;;;;;;;0.10;0.10;;;;;;;27.44;31.16;102882.34;5074678;28;20111;-82